Time;durP1;ratioP1;P1;durP2;ratioP2;P2;SDS_P1;SDS_P2;PMS_P1;PMS_P2;Temp;Humidity;BMP_temperature;BMP_pressure;BME280_temperature;BME280_humidity;BME280_pressure;Samples;Min_cycle;Max_cycle;Signal;HPM_P1;HPM_P2
2021/08/27 00:00:38;;;;;;;9.67;2.50;;;;;;;;;;5035417;28;20303;-83
2021/08/27 00:03:03;;;;;;;7.53;2.57;;;;;;;;;;5034760;28;20487;-83
2021/08/27 00:05:29;;;;;;;7.88;3.60;;;;;;;;;;5038698;28;20029;-83
2021/08/27 00:07:54;;;;;;;6.23;2.63;;;;;;;;;;5035682;28;20096;-83
2021/08/27 00:10:19;;;;;;;7.07;2.47;;;;;;;;;;5036589;28;20249;-83
2021/08/27 00:12:45;;;;;;;7.53;3.10;;;;;;;;;;5036914;28;20017;-82
2021/08/27 00:15:10;;;;;;;8.48;2.47;;;;;;;;;;5038041;28;20260;-83
2021/08/27 00:17:35;;;;;;;9.20;2.50;;;;;;;;;;5037376;28;20648;-83
2021/08/27 00:20:01;;;;;;;10.15;2.72;;;;;;;;;;5035867;28;20036;-83
2021/08/27 00:22:27;;;;;;;9.88;3.13;;;;;;;;;;5033365;28;20033;-83
2021/08/27 00:24:53;;;;;;;12.32;2.75;;;;;;;;;;5034567;28;20022;-83
2021/08/27 00:27:18;;;;;;;6.18;2.72;;;;;;;;;;5032526;28;20393;-83
2021/08/27 00:29:43;;;;;;;6.22;2.42;;;;;;;;;;5035166;28;20060;-83
2021/08/27 00:32:09;;;;;;;7.25;2.40;;;;;;;;;;5037407;28;20022;-82
2021/08/27 00:34:34;;;;;;;9.10;2.88;;;;;;;;;;5037005;28;20133;-83
2021/08/27 00:37:00;;;;;;;12.38;2.95;;;;;;;;;;5036959;28;20039;-84
2021/08/27 00:39:26;;;;;;;10.88;2.80;;;;;;;;;;5038342;28;20030;-83
2021/08/27 00:41:51;;;;;;;9.02;2.53;;;;;;;;;;5037017;28;20025;-83
2021/08/27 00:44:16;;;;;;;9.50;2.73;;;;;;;;;;5033086;28;20033;-83
2021/08/27 00:46:41;;;;;;;8.77;3.33;;;;;;;;;;5032538;28;20263;-83
2021/08/27 00:49:06;;;;;;;7.40;2.50;;;;;;;;;;5033591;28;20744;-82
2021/08/27 00:51:32;;;;;;;9.20;3.50;;;;;;;;;;5033429;28;20260;-82
2021/08/27 00:53:57;;;;;;;7.40;2.47;;;;;;;;;;5033178;28;20373;-83
2021/08/27 00:56:22;;;;;;;6.13;2.38;;;;;;;;;;5037286;28;20029;-83
2021/08/27 00:58:47;;;;;;;9.10;2.30;;;;;;;;;;5038307;28;20542;-83
2021/08/27 01:01:12;;;;;;;4.50;2.00;;;;;;;;;;5036994;28;20022;-83
2021/08/27 01:03:38;;;;;;;14.17;3.00;;;;;;;;;;5036050;28;20284;-83
2021/08/27 01:06:09;;;;;;;7.45;2.72;;;;;;;;;;5034855;28;20021;-83
2021/08/27 01:08:52;;;;;;;6.30;2.55;;;;;;;;;;5031965;28;20040;-82
2021/08/27 01:11:24;;;;;;;7.18;3.08;;;;;;;;;;5032449;28;20029;-83
2021/08/27 01:14:10;;;;;;;10.90;2.45;;;;;;;;;;5032057;28;20378;-82
2021/08/27 01:16:47;;;;;;;8.18;2.20;;;;;;;;;;5030490;28;20417;-82
2021/08/27 01:19:37;;;;;;;6.82;2.60;;;;;;;;;;5033771;28;20545;-83
2021/08/27 01:22:08;;;;;;;6.35;2.67;;;;;;;;;;5038159;28;20033;-83
2021/08/27 01:24:34;;;;;;;7.20;2.55;;;;;;;;;;5037335;28;20030;-82
2021/08/27 01:27:01;;;;;;;5.93;2.30;;;;;;;;;;5033857;28;20694;-83
2021/08/27 01:29:43;;;;;;;4.00;2.10;;;;;;;;;;5033969;28;20025;-83
2021/08/27 01:32:15;;;;;;;6.68;2.42;;;;;;;;;;5032829;28;20040;-82
2021/08/27 01:34:43;;;;;;;7.40;2.03;;;;;;;;;;5031997;28;20034;-82
2021/08/27 01:37:11;;;;;;;7.60;2.60;;;;;;;;;;5031704;28;20112;-83
2021/08/27 01:39:44;;;;;;;10.65;2.72;;;;;;;;;;5031881;28;20040;-82
2021/08/27 01:42:10;;;;;;;5.55;2.17;;;;;;;;;;5033625;28;20022;-83
2021/08/27 01:44:36;;;;;;;8.25;2.30;;;;;;;;;;5038402;28;20079;-83
2021/08/27 01:47:03;;;;;;;6.55;2.25;;;;;;;;;;5036467;28;20029;-83
2021/08/27 01:49:29;;;;;;;4.88;2.10;;;;;;;;;;5034629;28;20099;-83
2021/08/27 01:51:55;;;;;;;6.63;2.50;;;;;;;;;;5031991;28;20020;-82
2021/08/27 01:54:20;;;;;;;8.20;2.25;;;;;;;;;;5033453;28;20381;-83
2021/08/27 01:56:46;;;;;;;5.85;2.40;;;;;;;;;;5032297;28;20033;-82
2021/08/27 01:59:12;;;;;;;8.50;2.40;;;;;;;;;;5031925;28;20109;-82
2021/08/27 02:01:38;;;;;;;12.10;2.70;;;;;;;;;;5031487;28;20531;-82
2021/08/27 02:04:22;;;;;;;5.30;1.90;;;;;;;;;;5035254;28;20028;-83
2021/08/27 02:06:47;;;;;;;4.60;1.88;;;;;;;;;;5036638;28;20448;-83
2021/08/27 02:09:13;;;;;;;5.20;1.83;;;;;;;;;;5037908;28;20024;-83
2021/08/27 02:11:38;;;;;;;7.18;1.73;;;;;;;;;;5036330;28;20025;-83
2021/08/27 02:14:04;;;;;;;4.68;2.28;;;;;;;;;;5035460;28;20025;-83
2021/08/27 02:16:30;;;;;;;3.42;1.90;;;;;;;;;;5033481;28;20493;-83
2021/08/27 02:18:56;;;;;;;6.10;1.90;;;;;;;;;;5032828;28;20028;-83
2021/08/27 02:21:22;;;;;;;6.57;1.70;;;;;;;;;;5031381;28;20790;-83
2021/08/27 02:23:49;;;;;;;5.10;1.92;;;;;;;;;;5029792;28;20032;-82
2021/08/27 02:26:15;;;;;;;4.95;1.50;;;;;;;;;;5031735;28;20028;-84
2021/08/27 02:28:42;;;;;;;4.60;1.80;;;;;;;;;;5037354;28;20385;-83
2021/08/27 02:31:08;;;;;;;4.90;1.92;;;;;;;;;;5036819;28;20084;-84
2021/08/27 02:33:34;;;;;;;9.00;3.15;;;;;;;;;;5032823;28;20029;-83
2021/08/27 02:36:00;;;;;;;4.93;2.25;;;;;;;;;;5033818;28;20026;-83
2021/08/27 02:38:26;;;;;;;10.35;2.22;;;;;;;;;;5036195;28;20032;-83
2021/08/27 02:40:52;;;;;;;7.40;2.00;;;;;;;;;;5033281;28;20052;-83
2021/08/27 02:43:17;;;;;;;6.67;1.97;;;;;;;;;;5033642;28;20029;-82
2021/08/27 02:45:42;;;;;;;6.30;1.90;;;;;;;;;;5031780;28;20028;-83
2021/08/27 02:48:07;;;;;;;9.00;2.43;;;;;;;;;;5031575;28;20083;-83
2021/08/27 02:50:37;;;;;;;6.45;2.17;;;;;;;;;;5031740;28;20350;-82
2021/08/27 02:53:04;;;;;;;8.65;2.50;;;;;;;;;;5033517;28;20053;-83
2021/08/27 02:55:35;;;;;;;8.85;2.80;;;;;;;;;;5035758;28;20030;-83
2021/08/27 02:58:05;;;;;;;4.60;2.20;;;;;;;;;;5034194;28;20021;-83
2021/08/27 03:00:50;;;;;;;9.63;2.15;;;;;;;;;;5032751;28;20455;-84
2021/08/27 03:03:17;;;;;;;5.78;2.05;;;;;;;;;;5035868;28;20034;-83
2021/08/27 03:05:43;;;;;;;7.25;2.20;;;;;;;;;;5032684;28;20075;-83
2021/08/27 03:08:12;;;;;;;5.22;2.20;;;;;;;;;;5031033;28;20389;-82
2021/08/27 03:10:45;;;;;;;8.90;2.42;;;;;;;;;;5030567;28;20029;-82
2021/08/27 03:13:16;;;;;;;7.68;2.00;;;;;;;;;;5034557;28;20100;-83
2021/08/27 03:15:46;;;;;;;9.20;2.58;;;;;;;;;;5035895;28;20053;-83
2021/08/27 03:18:16;;;;;;;9.35;1.90;;;;;;;;;;5034189;28;20045;-82
2021/08/27 03:20:45;;;;;;;5.68;2.00;;;;;;;;;;5032483;28;20048;-83
2021/08/27 03:23:11;;;;;;;7.57;2.10;;;;;;;;;;5031313;28;20052;-83
2021/08/27 03:25:39;;;;;;;7.10;2.15;;;;;;;;;;5032426;28;20018;-83
2021/08/27 03:28:06;;;;;;;7.30;2.28;;;;;;;;;;5029503;28;20021;-83
2021/08/27 03:30:32;;;;;;;7.68;2.13;;;;;;;;;;5035118;28;20021;-82
2021/08/27 03:32:58;;;;;;;4.65;1.75;;;;;;;;;;5034747;28;20025;-83
2021/08/27 03:35:23;;;;;;;7.93;2.42;;;;;;;;;;5031308;28;20032;-83
2021/08/27 03:37:50;;;;;;;5.30;2.05;;;;;;;;;;5030163;28;20389;-83
2021/08/27 03:40:16;;;;;;;9.95;2.05;;;;;;;;;;5034908;28;20496;-83
2021/08/27 03:42:41;;;;;;;8.23;2.85;;;;;;;;;;5033314;28;20439;-83
2021/08/27 03:45:07;;;;;;;5.35;2.03;;;;;;;;;;5032241;28;20026;-82
2021/08/27 03:47:33;;;;;;;5.15;1.92;;;;;;;;;;5031532;28;20029;-83
2021/08/27 03:49:58;;;;;;;7.28;2.03;;;;;;;;;;5030560;28;20040;-83
2021/08/27 03:52:24;;;;;;;7.53;2.08;;;;;;;;;;5031236;28;20032;-83
2021/08/27 03:54:49;;;;;;;6.55;2.50;;;;;;;;;;5030657;28;20032;-82
2021/08/27 03:57:15;;;;;;;4.50;1.90;;;;;;;;;;5035420;28;20049;-83
2021/08/27 03:59:41;;;;;;;6.20;1.80;;;;;;;;;;5038626;28;20075;-82
2021/08/27 04:02:09;;;;;;;5.43;2.13;;;;;;;;;;5036602;28;20549;-83
2021/08/27 04:04:35;;;;;;;5.85;2.70;;;;;;;;;;5037127;28;20497;-83
2021/08/27 04:07:01;;;;;;;5.07;2.27;;;;;;;;;;5039085;28;20105;-83
2021/08/27 04:09:27;;;;;;;16.88;2.65;;;;;;;;;;5037606;28;20257;-83
2021/08/27 04:11:52;;;;;;;6.20;2.55;;;;;;;;;;5036323;28;20032;-83
2021/08/27 04:14:17;;;;;;;4.85;2.65;;;;;;;;;;5033565;28;20029;-83
2021/08/27 04:16:43;;;;;;;5.60;2.20;;;;;;;;;;5034236;28;20057;-83
2021/08/27 04:19:08;;;;;;;4.50;2.72;;;;;;;;;;5032518;28;20561;-82
2021/08/27 04:21:33;;;;;;;8.02;3.22;;;;;;;;;;5033561;28;20071;-82
2021/08/27 04:23:59;;;;;;;3.80;2.10;;;;;;;;;;5034452;28;20029;-83
2021/08/27 04:26:24;;;;;;;10.07;2.20;;;;;;;;;;5036525;28;20022;-83
2021/08/27 04:28:49;;;;;;;5.97;2.30;;;;;;;;;;5039080;28;20264;-83
2021/08/27 04:31:14;;;;;;;5.70;2.57;;;;;;;;;;5035413;28;20513;-83
2021/08/27 04:33:39;;;;;;;4.40;2.70;;;;;;;;;;5034241;28;20075;-83
2021/08/27 04:36:04;;;;;;;4.57;2.60;;;;;;;;;;5034739;28;20256;-83
2021/08/27 04:38:30;;;;;;;4.70;2.63;;;;;;;;;;5034293;28;20040;-83
2021/08/27 04:40:55;;;;;;;5.00;2.60;;;;;;;;;;5033596;28;20454;-82
2021/08/27 04:43:20;;;;;;;5.53;2.70;;;;;;;;;;5032731;28;20358;-82
2021/08/27 04:45:45;;;;;;;8.70;2.35;;;;;;;;;;5036271;28;20017;-83
2021/08/27 04:48:11;;;;;;;5.93;2.90;;;;;;;;;;5038310;28;20023;-83
2021/08/27 04:50:36;;;;;;;7.40;2.55;;;;;;;;;;5035494;28;20030;-83
2021/08/27 04:53:01;;;;;;;11.10;2.73;;;;;;;;;;5035862;28;20556;-83
2021/08/27 04:55:26;;;;;;;8.55;2.70;;;;;;;;;;5034669;28;20260;-83
2021/08/27 04:57:52;;;;;;;7.53;2.70;;;;;;;;;;5034018;28;20025;-83
2021/08/27 05:00:17;;;;;;;11.87;3.03;;;;;;;;;;5033726;28;20036;-82
2021/08/27 05:02:42;;;;;;;6.20;2.55;;;;;;;;;;5033147;28;20501;-83
2021/08/27 05:05:08;;;;;;;7.07;3.67;;;;;;;;;;5033299;28;20029;-83
2021/08/27 05:07:33;;;;;;;9.75;2.92;;;;;;;;;;5037662;28;20362;-83
2021/08/27 05:09:59;;;;;;;4.57;2.67;;;;;;;;;;5038436;28;20032;-83
2021/08/27 05:12:24;;;;;;;7.90;2.85;;;;;;;;;;5037649;28;20378;-83
2021/08/27 05:14:49;;;;;;;5.68;2.72;;;;;;;;;;5035382;28;20029;-83
2021/08/27 05:17:14;;;;;;;8.33;3.07;;;;;;;;;;5035405;28;20054;-83
2021/08/27 05:19:40;;;;;;;4.88;2.38;;;;;;;;;;5033007;28;20029;-83
2021/08/27 05:22:05;;;;;;;6.70;2.83;;;;;;;;;;5033902;28;20031;-83
2021/08/27 05:24:30;;;;;;;10.70;2.70;;;;;;;;;;5032368;28;20500;-83
2021/08/27 05:26:55;;;;;;;9.53;2.67;;;;;;;;;;5032505;28;20260;-82
2021/08/27 05:29:20;;;;;;;7.70;2.87;;;;;;;;;;5035730;28;20263;-83
2021/08/27 05:31:46;;;;;;;6.40;2.50;;;;;;;;;;5037599;28;20762;-83
2021/08/27 05:34:11;;;;;;;6.60;2.83;;;;;;;;;;5036331;28;20543;-83
2021/08/27 05:36:36;;;;;;;5.63;2.40;;;;;;;;;;5037112;28;20280;-83
2021/08/27 05:39:02;;;;;;;5.57;3.03;;;;;;;;;;5036149;28;20025;-83
2021/08/27 05:41:27;;;;;;;6.45;2.75;;;;;;;;;;5033978;28;20500;-82
2021/08/27 05:43:52;;;;;;;4.07;2.55;;;;;;;;;;5033582;28;20381;-83
2021/08/27 05:46:18;;;;;;;5.13;2.80;;;;;;;;;;5032990;28;20029;-82
2021/08/27 05:48:43;;;;;;;6.90;2.90;;;;;;;;;;5030800;28;20021;-82
2021/08/27 05:51:08;;;;;;;6.50;3.00;;;;;;;;;;5035613;28;20385;-83
2021/08/27 05:53:34;;;;;;;5.90;2.70;;;;;;;;;;5036938;28;20029;-83
2021/08/27 05:55:59;;;;;;;5.90;2.90;;;;;;;;;;5035287;28;20037;-83
2021/08/27 05:58:24;;;;;;;5.28;2.95;;;;;;;;;;5034996;28;20056;-83
2021/08/27 06:00:50;;;;;;;7.67;2.93;;;;;;;;;;5036399;28;20071;-83
2021/08/27 06:03:15;;;;;;;4.90;2.40;;;;;;;;;;5034167;28;20083;-83
2021/08/27 06:05:40;;;;;;;7.03;3.22;;;;;;;;;;5032340;28;20021;-83
2021/08/27 06:08:06;;;;;;;6.25;2.92;;;;;;;;;;5032744;28;20020;-83
2021/08/27 06:10:31;;;;;;;5.88;2.92;;;;;;;;;;5033243;28;20049;-83
2021/08/27 06:12:56;;;;;;;9.83;3.70;;;;;;;;;;5037998;28;20026;-83
2021/08/27 06:15:21;;;;;;;6.90;3.60;;;;;;;;;;5035867;28;20417;-83
2021/08/27 06:17:47;;;;;;;8.18;3.15;;;;;;;;;;5034938;28;20113;-83
2021/08/27 06:20:12;;;;;;;6.63;2.90;;;;;;;;;;5032969;28;20029;-83
2021/08/27 06:22:37;;;;;;;6.05;2.97;;;;;;;;;;5034585;28;20125;-81
2021/08/27 06:25:03;;;;;;;5.10;2.95;;;;;;;;;;5032294;28;20032;-83
2021/08/27 06:27:28;;;;;;;8.55;3.13;;;;;;;;;;5033229;28;20025;-83
2021/08/27 06:29:53;;;;;;;8.30;2.90;;;;;;;;;;5032682;28;20040;-83
2021/08/27 06:32:19;;;;;;;5.10;2.85;;;;;;;;;;5033249;28;20021;-83
2021/08/27 06:34:44;;;;;;;6.47;2.97;;;;;;;;;;5036660;28;20485;-83
2021/08/27 06:37:10;;;;;;;6.55;3.08;;;;;;;;;;5034758;28;20104;-83
2021/08/27 06:39:35;;;;;;;5.25;3.03;;;;;;;;;;5033388;28;20079;-83
2021/08/27 06:42:00;;;;;;;6.18;3.75;;;;;;;;;;5030790;28;20526;-82
2021/08/27 06:44:26;;;;;;;7.20;3.58;;;;;;;;;;5033626;28;20721;-83
2021/08/27 06:46:51;;;;;;;6.53;3.42;;;;;;;;;;5033987;28;20052;-82
2021/08/27 06:49:16;;;;;;;8.75;3.25;;;;;;;;;;5033086;28;20017;-83
2021/08/27 06:51:42;;;;;;;7.60;3.03;;;;;;;;;;5034215;28;20025;-83
2021/08/27 06:54:08;;;;;;;7.90;3.42;;;;;;;;;;5035618;28;20048;-83
2021/08/27 06:56:33;;;;;;;6.57;3.40;;;;;;;;;;5032128;28;20045;-83
2021/08/27 06:58:58;;;;;;;5.38;2.88;;;;;;;;;;5033145;28;20025;-83
2021/08/27 07:01:24;;;;;;;8.00;3.55;;;;;;;;;;5032376;28;20128;-83
2021/08/27 07:03:49;;;;;;;9.88;3.20;;;;;;;;;;5031878;28;20060;-83
2021/08/27 07:06:14;;;;;;;6.47;3.50;;;;;;;;;;5030847;28;20060;-82
2021/08/27 07:08:40;;;;;;;6.20;3.22;;;;;;;;;;5031786;28;20026;-83
2021/08/27 07:11:05;;;;;;;4.93;3.22;;;;;;;;;;5034167;28;20104;-83
2021/08/27 07:13:30;;;;;;;9.05;3.50;;;;;;;;;;5031628;28;20029;-82
2021/08/27 07:15:56;;;;;;;8.70;3.43;;;;;;;;;;5034061;28;20085;-83
2021/08/27 07:18:22;;;;;;;10.18;7.10;;;;;;;;;;5034617;28;20335;-83
2021/08/27 07:20:47;;;;;;;4.80;2.50;;;;;;;;;;5033731;28;20608;-82
2021/08/27 07:23:13;;;;;;;5.77;2.30;;;;;;;;;;5030474;28;20018;-83
2021/08/27 07:25:39;;;;;;;5.53;2.60;;;;;;;;;;5031803;28;20104;-83
2021/08/27 07:28:04;;;;;;;4.20;2.30;;;;;;;;;;5030517;28;20410;-82
2021/08/27 07:30:29;;;;;;;4.70;2.40;;;;;;;;;;5029889;28;20029;-82
2021/08/27 07:32:54;;;;;;;3.90;2.33;;;;;;;;;;5035096;28;20108;-83
2021/08/27 07:35:19;;;;;;;6.80;2.30;;;;;;;;;;5038501;28;20061;-82
2021/08/27 07:37:45;;;;;;;5.70;2.37;;;;;;;;;;5039953;28;20315;-83
2021/08/27 07:40:13;;;;;;;5.13;2.50;;;;;;;;;;5037849;28;20686;-83
2021/08/27 07:42:38;;;;;;;2.80;2.22;;;;;;;;;;5036370;28;20323;-84
2021/08/27 07:45:04;;;;;;;4.68;2.60;;;;;;;;;;5035628;28;20132;-83
2021/08/27 07:47:29;;;;;;;3.55;2.20;;;;;;;;;;5036256;28;20029;-82
2021/08/27 07:49:54;;;;;;;5.13;3.27;;;;;;;;;;5035066;28;20017;-82
2021/08/27 07:52:19;;;;;;;9.03;2.77;;;;;;;;;;5033922;28;20069;-83
2021/08/27 07:54:44;;;;;;;6.57;2.90;;;;;;;;;;5033797;28;20260;-82
2021/08/27 07:57:10;;;;;;;6.33;3.10;;;;;;;;;;5032058;28;20405;-82
2021/08/27 07:59:35;;;;;;;6.97;3.53;;;;;;;;;;5037044;28;20292;-83
2021/08/27 08:02:00;;;;;;;4.70;3.17;;;;;;;;;;5039516;28;20264;-83
2021/08/27 08:04:25;;;;;;;8.10;4.00;;;;;;;;;;5036494;28;20363;-83
2021/08/27 08:06:50;;;;;;;8.17;4.00;;;;;;;;;;5034653;28;21066;-83
2021/08/27 08:09:16;;;;;;;8.53;3.63;;;;;;;;;;5035825;28;20351;-83
2021/08/27 08:11:41;;;;;;;8.13;3.25;;;;;;;;;;5035521;28;20264;-83
2021/08/27 08:14:06;;;;;;;10.35;3.67;;;;;;;;;;5034387;28;20025;-83
2021/08/27 08:16:31;;;;;;;9.17;3.60;;;;;;;;;;5033854;28;20502;-83
2021/08/27 08:18:56;;;;;;;9.50;3.60;;;;;;;;;;5033257;28;20014;-82
2021/08/27 08:21:25;;;;;;;7.70;4.10;;;;;;;;;;5034941;28;20264;-82
2021/08/27 08:23:51;;;;;;;10.05;3.40;;;;;;;;;;5035500;28;20310;-84
2021/08/27 08:26:17;;;;;;;9.57;3.38;;;;;;;;;;5039831;28;20373;-83
2021/08/27 08:28:42;;;;;;;7.38;3.22;;;;;;;;;;5036635;28;20029;-82
2021/08/27 08:31:08;;;;;;;6.93;3.60;;;;;;;;;;5035394;28;20025;-83
2021/08/27 08:33:33;;;;;;;5.28;3.40;;;;;;;;;;5033814;28;20113;-83
2021/08/27 08:35:58;;;;;;;8.67;4.10;;;;;;;;;;5034719;28;20435;-82
2021/08/27 08:38:24;;;;;;;9.63;4.25;;;;;;;;;;5034370;28;20295;-82
2021/08/27 08:40:49;;;;;;;8.73;3.80;;;;;;;;;;5033040;28;20025;-82
2021/08/27 08:43:15;;;;;;;11.00;4.07;;;;;;;;;;5029874;28;20021;-83
2021/08/27 08:45:48;;;;;;;7.00;3.47;;;;;;;;;;5032785;28;20303;-83
2021/08/27 08:48:13;;;;;;;7.20;3.92;;;;;;;;;;5036278;28;20075;-82
2021/08/27 08:50:39;;;;;;;6.85;3.53;;;;;;;;;;5039934;28;20085;-83
2021/08/27 08:53:04;;;;;;;5.72;3.60;;;;;;;;;;5038544;28;20099;-83
2021/08/27 08:55:30;;;;;;;7.78;3.38;;;;;;;;;;5036567;28;20029;-83
2021/08/27 08:57:55;;;;;;;7.95;4.03;;;;;;;;;;5035251;28;20030;-82
2021/08/27 09:00:21;;;;;;;8.93;4.60;;;;;;;;;;5032871;28;20021;-83
2021/08/27 09:02:46;;;;;;;7.10;3.78;;;;;;;;;;5033533;28;20129;-83
2021/08/27 09:05:11;;;;;;;6.63;4.07;;;;;;;;;;5032517;28;20033;-82
2021/08/27 09:07:36;;;;;;;10.30;4.07;;;;;;;;;;5032392;28;20751;-82
2021/08/27 09:10:02;;;;;;;9.55;3.67;;;;;;;;;;5032338;28;20033;-82
2021/08/27 09:12:29;;;;;;;9.60;3.75;;;;;;;;;;5030719;28;20026;-82
2021/08/27 09:15:09;;;;;;;7.47;3.58;;;;;;;;;;5036977;28;20036;-84
2021/08/27 09:17:37;;;;;;;11.40;3.97;;;;;;;;;;5038647;28;20124;-83
2021/08/27 09:20:23;;;;;;;9.98;4.35;;;;;;;;;;5034625;28;20509;-83
2021/08/27 09:22:56;;;;;;;7.97;3.92;;;;;;;;;;5034953;28;20037;-83
2021/08/27 09:25:22;;;;;;;7.40;4.05;;;;;;;;;;5034762;28;20484;-83
2021/08/27 09:28:02;;;;;;;16.38;5.18;;;;;;;;;;5033662;28;20021;-82
2021/08/27 09:30:28;;;;;;;12.07;4.15;;;;;;;;;;5032988;28;20536;-83
2021/08/27 09:32:54;;;;;;;10.88;4.97;;;;;;;;;;5032218;28;20089;-82
2021/08/27 09:35:21;;;;;;;12.02;4.50;;;;;;;;;;5034286;28;20053;-83
2021/08/27 09:37:47;;;;;;;7.75;4.60;;;;;;;;;;5036055;28;20626;-83
2021/08/27 09:40:14;;;;;;;10.25;3.70;;;;;;;;;;5038156;28;20033;-83
2021/08/27 09:42:46;;;;;;;8.43;4.28;;;;;;;;;;5034888;28;20401;-83
2021/08/27 09:45:12;;;;;;;6.03;3.88;;;;;;;;;;5036335;28;20021;-83
2021/08/27 09:47:37;;;;;;;10.82;4.25;;;;;;;;;;5035393;28;20029;-82
2021/08/27 09:50:29;;;;;;;10.07;5.05;;;;;;;;;;5033937;28;20025;-83
2021/08/27 09:52:56;;;;;;;6.07;3.85;;;;;;;;;;5027898;28;20454;-82
2021/08/27 09:55:21;;;;;;;18.13;5.20;;;;;;;;;;5030312;28;20036;-82
2021/08/27 09:57:46;;;;;;;10.00;4.45;;;;;;;;;;5032003;28;20025;-82
2021/08/27 10:00:21;;;;;;;11.90;4.63;;;;;;;;;;5033486;28;20120;-83
2021/08/27 10:02:47;;;;;;;8.50;4.05;;;;;;;;;;5037788;28;20053;-83
2021/08/27 10:05:13;;;;;;;11.80;4.55;;;;;;;;;;5035851;28;20021;-83
2021/08/27 10:07:40;;;;;;;11.07;4.75;;;;;;;;;;5032912;28;20025;-83
2021/08/27 10:10:06;;;;;;;7.70;4.07;;;;;;;;;;5036096;28;20104;-83
2021/08/27 10:12:32;;;;;;;10.52;4.78;;;;;;;;;;5033328;28;20049;-83
2021/08/27 10:14:58;;;;;;;12.35;4.53;;;;;;;;;;5032069;28;20017;-82
2021/08/27 10:17:23;;;;;;;9.35;4.35;;;;;;;;;;5032232;28;20382;-83
2021/08/27 10:19:48;;;;;;;9.18;3.95;;;;;;;;;;5030618;28;20025;-83
2021/08/27 10:22:14;;;;;;;7.03;4.40;;;;;;;;;;5033327;28;20021;-83
2021/08/27 10:24:39;;;;;;;9.32;4.60;;;;;;;;;;5034644;28;20124;-83
2021/08/27 10:27:09;;;;;;;11.88;4.55;;;;;;;;;;5034923;28;20025;-83
2021/08/27 10:29:35;;;;;;;8.93;4.03;;;;;;;;;;5033741;28;20025;-83
2021/08/27 10:32:00;;;;;;;6.38;4.28;;;;;;;;;;5034182;28;20040;-83
2021/08/27 10:34:38;;;;;;;8.23;3.40;;;;;;;;;;5035144;28;20112;-83
2021/08/27 10:37:04;;;;;;;13.98;4.22;;;;;;;;;;5033805;28;20051;-83
2021/08/27 10:39:36;;;;;;;6.93;3.67;;;;;;;;;;5032074;28;20029;-83
2021/08/27 10:42:02;;;;;;;6.68;3.97;;;;;;;;;;5031978;28;20026;-83
2021/08/27 10:44:44;;;;;;;6.13;3.30;;;;;;;;;;5035175;28;20033;-83
2021/08/27 10:47:09;;;;;;;13.38;3.83;;;;;;;;;;5037355;28;20092;-83
2021/08/27 10:49:44;;;;;;;5.38;3.55;;;;;;;;;;5035799;28;20500;-83
2021/08/27 10:52:21;;;;;;;8.20;3.30;;;;;;;;;;5032999;28;20690;-83
2021/08/27 10:55:02;;;;;;;7.35;3.38;;;;;;;;;;5033440;28;20025;-83
2021/08/27 10:57:27;;;;;;;8.38;3.42;;;;;;;;;;5032176;28;20083;-83
2021/08/27 10:59:58;;;;;;;6.67;2.83;;;;;;;;;;5033753;28;20026;-83
2021/08/27 11:02:23;;;;;;;8.13;3.20;;;;;;;;;;5032543;28;20351;-83
2021/08/27 11:04:49;;;;;;;8.02;3.47;;;;;;;;;;5032003;28;20455;-83
2021/08/27 11:07:16;;;;;;;8.00;3.00;;;;;;;;;;5035234;28;20067;-84
2021/08/27 11:09:58;;;;;;;8.48;3.03;;;;;;;;;;5042348;28;20431;-83
2021/08/27 11:12:27;;;;;;;6.40;3.03;;;;;;;;;;5040496;28;20088;-84
2021/08/27 11:14:54;;;;;;;8.15;3.53;;;;;;;;;;5038539;28;20032;-83
2021/08/27 11:17:19;;;;;;;7.13;2.83;;;;;;;;;;5036495;28;20528;-83
2021/08/27 11:20:04;;;;;;;7.53;3.22;;;;;;;;;;5035979;28;20033;-82
2021/08/27 11:22:32;;;;;;;4.03;2.72;;;;;;;;;;5034470;28;20151;-83
2021/08/27 11:25:04;;;;;;;7.80;3.58;;;;;;;;;;5036706;28;20117;-83
2021/08/27 11:27:30;;;;;;;6.13;3.22;;;;;;;;;;5034235;28;20103;-83
2021/08/27 11:29:59;;;;;;;6.25;2.45;;;;;;;;;;5040162;28;20076;-84
2021/08/27 11:32:27;;;;;;;3.40;2.15;;;;;;;;;;5040626;28;20041;-83
2021/08/27 11:35:06;;;;;;;4.80;2.60;;;;;;;;;;5037064;28;20033;-83
2021/08/27 11:37:41;;;;;;;9.15;2.90;;;;;;;;;;5034797;28;20029;-83
2021/08/27 11:40:08;;;;;;;8.68;3.55;;;;;;;;;;5035563;28;20021;-83
2021/08/27 11:42:33;;;;;;;7.90;3.65;;;;;;;;;;5034434;28;20038;-83
2021/08/27 11:45:10;;;;;;;7.80;3.08;;;;;;;;;;5035731;28;20492;-83
2021/08/27 11:47:39;;;;;;;6.25;3.00;;;;;;;;;;5037460;28;20013;-83
2021/08/27 11:50:06;;;;;;;6.47;2.60;;;;;;;;;;5038494;28;20029;-82
2021/08/27 11:52:32;;;;;;;8.45;3.08;;;;;;;;;;5038623;28;20041;-83
2021/08/27 11:55:07;;;;;;;11.52;3.42;;;;;;;;;;5035701;28;20477;-83
2021/08/27 11:57:33;;;;;;;11.75;3.65;;;;;;;;;;5033324;28;20053;-82
2021/08/27 12:00:06;;;;;;;6.85;2.85;;;;;;;;;;5034874;28;20083;-82
2021/08/27 12:02:31;;;;;;;8.13;3.53;;;;;;;;;;5033756;28;20025;-82
2021/08/27 12:04:59;;;;;;;10.13;3.30;;;;;;;;;;5033553;28;20021;-83
2021/08/27 12:07:28;;;;;;;5.85;2.45;;;;;;;;;;5034643;28;20025;-83
2021/08/27 12:10:06;;;;;;;7.80;2.63;;;;;;;;;;5041734;28;20020;-84
2021/08/27 12:12:33;;;;;;;5.25;2.30;;;;;;;;;;5038555;28;20469;-83
2021/08/27 12:14:58;;;;;;;5.38;1.95;;;;;;;;;;5037449;28;20111;-83
2021/08/27 12:17:24;;;;;;;5.05;2.00;;;;;;;;;;5036150;28;20044;-83
2021/08/27 12:19:50;;;;;;;5.28;1.80;;;;;;;;;;5037243;28;20037;-83
2021/08/27 12:22:17;;;;;;;2.53;1.80;;;;;;;;;;5034992;28;20386;-83
2021/08/27 12:24:42;;;;;;;4.90;2.10;;;;;;;;;;5034108;28;20535;-82
2021/08/27 12:27:08;;;;;;;6.07;1.88;;;;;;;;;;5033023;28;20148;-83
2021/08/27 12:29:33;;;;;;;5.10;2.72;;;;;;;;;;5031691;28;20021;-82
2021/08/27 12:31:58;;;;;;;5.60;2.00;;;;;;;;;;5033090;28;20026;-84
2021/08/27 12:34:24;;;;;;;5.03;2.08;;;;;;;;;;5038787;28;20025;-84
2021/08/27 12:36:49;;;;;;;4.17;2.10;;;;;;;;;;5035966;28;20057;-84
2021/08/27 12:39:15;;;;;;;4.28;1.73;;;;;;;;;;5036908;28;20264;-83
2021/08/27 12:41:40;;;;;;;4.22;1.98;;;;;;;;;;5036155;28;20032;-83
2021/08/27 12:44:06;;;;;;;3.70;1.90;;;;;;;;;;5034716;28;20039;-83
2021/08/27 12:46:32;;;;;;;3.72;1.65;;;;;;;;;;5034849;28;20264;-83
2021/08/27 12:49:16;;;;;;;4.25;1.85;;;;;;;;;;5031794;28;20021;-83
2021/08/27 12:51:51;;;;;;;2.63;1.80;;;;;;;;;;5033211;28;20493;-83
2021/08/27 12:54:18;;;;;;;3.97;2.40;;;;;;;;;;5033206;28;20393;-83
2021/08/27 12:56:56;;;;;;;5.15;2.42;;;;;;;;;;5034345;28;20027;-83
2021/08/27 12:59:21;;;;;;;6.63;2.30;;;;;;;;;;5037287;28;20025;-84
2021/08/27 13:01:47;;;;;;;4.97;2.43;;;;;;;;;;5035452;28;20021;-84
2021/08/27 13:04:12;;;;;;;4.25;2.05;;;;;;;;;;5034086;28;20057;-84
2021/08/27 13:06:38;;;;;;;3.92;2.28;;;;;;;;;;5033068;28;20078;-83
2021/08/27 13:09:08;;;;;;;3.33;1.90;;;;;;;;;;5030710;28;20393;-84
2021/08/27 13:11:46;;;;;;;16.00;2.40;;;;;;;;;;5030731;28;20029;-84
2021/08/27 13:14:18;;;;;;;13.48;3.83;;;;;;;;;;5032783;28;20070;-83
2021/08/27 13:16:50;;;;;;;7.38;2.65;;;;;;;;;;5032493;28;20064;-83
2021/08/27 13:19:15;;;;;;;8.60;3.05;;;;;;;;;;5035060;28;20028;-84
2021/08/27 13:21:40;;;;;;;10.73;3.33;;;;;;;;;;5037543;28;20022;-83
2021/08/27 13:24:07;;;;;;;7.90;3.00;;;;;;;;;;5037858;28;20280;-84
2021/08/27 13:26:32;;;;;;;6.88;2.92;;;;;;;;;;5035742;28;20049;-83
2021/08/27 13:28:58;;;;;;;6.68;2.58;;;;;;;;;;5036016;28;20017;-83
2021/08/27 13:31:23;;;;;;;6.93;2.70;;;;;;;;;;5035304;28;20021;-83
2021/08/27 13:33:48;;;;;;;10.83;3.77;;;;;;;;;;5035036;28;20033;-83
2021/08/27 13:36:14;;;;;;;10.63;3.67;;;;;;;;;;5031781;28;20034;-83
2021/08/27 13:38:39;;;;;;;6.78;2.42;;;;;;;;;;5032522;28;20033;-83
2021/08/27 13:41:04;;;;;;;8.87;2.77;;;;;;;;;;5031764;28;20060;-83
2021/08/27 13:43:29;;;;;;;21.42;3.25;;;;;;;;;;5031445;28;20032;-83
2021/08/27 13:45:54;;;;;;;15.03;3.70;;;;;;;;;;5039482;28;20559;-83
2021/08/27 13:48:20;;;;;;;11.93;3.38;;;;;;;;;;5038520;28;20248;-83
2021/08/27 13:50:46;;;;;;;13.33;3.10;;;;;;;;;;5034373;28;20060;-83
2021/08/27 13:53:11;;;;;;;7.95;2.53;;;;;;;;;;5032925;28;20628;-84
2021/08/27 13:55:37;;;;;;;11.33;3.50;;;;;;;;;;5033669;28;20033;-83
2021/08/27 13:58:02;;;;;;;6.90;2.05;;;;;;;;;;5030385;28;20296;-83
2021/08/27 14:00:27;;;;;;;6.03;2.75;;;;;;;;;;5031735;28;20087;-83
2021/08/27 14:02:52;;;;;;;3.60;2.17;;;;;;;;;;5031407;28;20105;-83
2021/08/27 14:05:18;;;;;;;4.47;2.53;;;;;;;;;;5031220;28;20052;-83
2021/08/27 14:07:43;;;;;;;5.13;2.05;;;;;;;;;;5035945;28;20018;-84
2021/08/27 14:10:09;;;;;;;3.70;1.73;;;;;;;;;;5036661;28;20615;-84
2021/08/27 14:12:34;;;;;;;5.63;1.90;;;;;;;;;;5035136;28;20736;-83
2021/08/27 14:14:59;;;;;;;4.00;1.80;;;;;;;;;;5033733;28;20381;-82
2021/08/27 14:17:25;;;;;;;5.50;2.17;;;;;;;;;;5033060;28;20397;-84
2021/08/27 14:19:50;;;;;;;13.40;2.28;;;;;;;;;;5030081;28;20068;-83
2021/08/27 14:22:15;;;;;;;4.40;2.00;;;;;;;;;;5031535;28;20038;-83
2021/08/27 14:24:40;;;;;;;9.30;2.73;;;;;;;;;;5029473;28;20036;-82
2021/08/27 14:27:05;;;;;;;13.93;2.20;;;;;;;;;;5031688;28;20625;-83
2021/08/27 14:29:31;;;;;;;8.80;2.60;;;;;;;;;;5038389;28;20049;-84
2021/08/27 14:31:56;;;;;;;7.90;2.28;;;;;;;;;;5036878;28;20260;-84
2021/08/27 14:34:22;;;;;;;7.88;2.67;;;;;;;;;;5033708;28;20021;-83
2021/08/27 14:36:48;;;;;;;5.47;2.72;;;;;;;;;;5035235;28;20096;-83
2021/08/27 14:39:14;;;;;;;7.03;2.30;;;;;;;;;;5034347;28;20025;-83